createdAt,value
2018-07-30T00:01:02.912Z,23.40
2018-07-30T00:03:31.382Z,23.30
2018-07-30T00:05:59.779Z,23.30
2018-07-30T00:08:28.233Z,23.30
2018-07-30T00:10:56.655Z,23.30
2018-07-30T00:13:25.028Z,23.30
2018-07-30T00:15:53.451Z,23.30
2018-07-30T00:18:21.872Z,23.20
2018-07-30T00:20:50.287Z,23.10
2018-07-30T00:23:18.753Z,23.00
2018-07-30T00:25:47.235Z,22.90
2018-07-30T00:28:15.611Z,22.80
2018-07-30T00:30:44.008Z,22.60
2018-07-30T00:33:12.408Z,22.60
2018-07-30T00:35:40.851Z,22.50
2018-07-30T00:38:09.312Z,22.50
2018-07-30T00:40:37.849Z,22.40
2018-07-30T00:43:06.241Z,22.40
2018-07-30T00:45:34.643Z,22.30
2018-07-30T00:48:03.023Z,22.30
2018-07-30T00:50:31.421Z,22.30
2018-07-30T00:52:59.861Z,22.30
2018-07-30T00:55:28.223Z,22.30
2018-07-30T00:57:56.661Z,22.30
2018-07-30T01:00:25.049Z,22.20
2018-07-30T01:02:53.476Z,22.20
2018-07-30T01:05:21.865Z,22.20
2018-07-30T01:07:50.280Z,22.20
2018-07-30T01:10:18.812Z,22.20
2018-07-30T01:12:47.235Z,22.10
2018-07-30T01:15:15.658Z,22.10
2018-07-30T01:17:44.028Z,22.10
2018-07-30T01:20:12.421Z,22.00
2018-07-30T01:22:40.800Z,21.90
2018-07-30T01:25:09.226Z,21.80
2018-07-30T01:27:37.628Z,21.80
2018-07-30T01:30:06.561Z,21.80
2018-07-30T01:32:35.098Z,21.80
2018-07-30T01:35:03.528Z,21.80
2018-07-30T01:37:31.928Z,21.70
2018-07-30T01:40:00.300Z,21.70
2018-07-30T01:42:28.744Z,21.70
2018-07-30T01:44:57.162Z,21.70
2018-07-30T01:47:25.548Z,21.70
2018-07-30T01:49:53.926Z,21.60
2018-07-30T01:52:22.315Z,21.60
2018-07-30T01:54:50.716Z,21.50
2018-07-30T01:57:19.163Z,21.50
2018-07-30T01:59:47.707Z,21.60
2018-07-30T02:02:16.156Z,21.70
2018-07-30T02:04:44.556Z,21.70
2018-07-30T02:07:13.052Z,21.80
2018-07-30T02:09:41.468Z,21.90
2018-07-30T02:12:09.856Z,22.00
2018-07-30T02:14:38.288Z,22.10
2018-07-30T02:17:06.977Z,22.10
2018-07-30T02:19:35.545Z,22.10
2018-07-30T02:22:03.985Z,22.20
2018-07-30T02:24:32.390Z,22.20
2018-07-30T02:27:00.795Z,22.10
2018-07-30T02:29:29.296Z,22.10
2018-07-30T02:31:57.694Z,22.10
2018-07-30T02:34:26.131Z,22.20
2018-07-30T02:36:54.541Z,22.20
2018-07-30T02:39:22.930Z,22.20
2018-07-30T02:41:51.345Z,22.20
2018-07-30T02:44:19.767Z,22.10
2018-07-30T02:46:48.180Z,21.90
2018-07-30T02:49:16.627Z,21.90
2018-07-30T02:51:45.050Z,21.80
2018-07-30T02:54:13.579Z,21.80
2018-07-30T02:56:41.977Z,21.70
2018-07-30T02:59:10.381Z,21.70
2018-07-30T03:01:38.856Z,21.60
2018-07-30T03:04:07.456Z,21.50
2018-07-30T03:06:35.848Z,21.40
2018-07-30T03:09:06.063Z,21.30
2018-07-30T03:11:34.515Z,21.20
2018-07-30T03:14:02.923Z,21.30
2018-07-30T03:16:31.321Z,21.30
2018-07-30T03:18:59.795Z,21.30
2018-07-30T03:21:28.239Z,21.20
2018-07-30T03:23:56.659Z,21.20
2018-07-30T03:26:25.120Z,21.20
2018-07-30T03:28:53.707Z,21.10
2018-07-30T03:31:22.297Z,21.00
2018-07-30T03:33:50.715Z,20.90
2018-07-30T03:36:19.175Z,20.90
2018-07-30T03:38:47.571Z,20.90
2018-07-30T03:41:15.948Z,20.90
2018-07-30T03:43:44.592Z,21.00
2018-07-30T03:46:13.264Z,21.10
2018-07-30T03:48:51.596Z,21.20
2018-07-30T03:51:20.128Z,21.40
2018-07-30T03:53:48.708Z,21.50
2018-07-30T03:56:17.152Z,21.50
2018-07-30T03:58:45.552Z,21.50
2018-07-30T04:01:14.021Z,21.40
2018-07-30T04:03:42.447Z,21.30
2018-07-30T04:06:10.932Z,21.20
2018-07-30T04:08:39.300Z,21.10
2018-07-30T04:11:07.950Z,20.90
2018-07-30T04:13:36.350Z,20.70
2018-07-30T04:16:04.816Z,20.60
2018-07-30T04:18:33.253Z,20.50
2018-07-30T04:21:01.667Z,20.60
2018-07-30T04:23:30.117Z,20.70
2018-07-30T04:25:58.520Z,20.70
2018-07-30T04:28:26.930Z,20.70
2018-07-30T04:30:55.474Z,20.60
2018-07-30T04:33:23.798Z,20.50
2018-07-30T04:35:52.175Z,20.40
2018-07-30T04:38:20.764Z,20.30
2018-07-30T04:40:49.280Z,20.30
2018-07-30T04:43:17.784Z,20.20
2018-07-30T04:45:46.175Z,20.20
2018-07-30T04:48:14.581Z,20.30
2018-07-30T04:50:43.111Z,20.40
2018-07-30T04:53:11.562Z,20.40
2018-07-30T04:55:39.991Z,20.50
2018-07-30T04:58:08.428Z,20.80
2018-07-30T05:00:36.816Z,20.90
2018-07-30T05:03:07.281Z,21.00
2018-07-30T05:05:37.143Z,21.10
2018-07-30T05:08:05.675Z,21.30
2018-07-30T05:10:34.222Z,21.50
2018-07-30T05:13:02.697Z,21.70
2018-07-30T05:15:31.099Z,22.00
2018-07-30T05:17:59.644Z,22.10
2018-07-30T05:20:28.040Z,22.30
2018-07-30T05:22:56.485Z,22.30
2018-07-30T05:25:24.923Z,22.40
2018-07-30T05:27:53.314Z,22.60
2018-07-30T05:30:21.680Z,22.70
2018-07-30T05:32:50.106Z,22.90
2018-07-30T05:35:18.551Z,23.00
2018-07-30T05:37:47.129Z,23.00
2018-07-30T05:40:15.601Z,23.10
2018-07-30T05:42:44.086Z,23.30
2018-07-30T05:45:12.483Z,23.60
2018-07-30T05:47:40.987Z,23.80
2018-07-30T05:50:09.715Z,23.90
2018-07-30T05:55:06.623Z,24.10
2018-07-30T05:57:34.995Z,24.40
2018-07-30T06:00:03.643Z,24.70
2018-07-30T06:02:32.039Z,24.60
2018-07-30T06:05:00.480Z,24.30
2018-07-30T06:07:28.866Z,24.40
2018-07-30T06:09:57.387Z,24.50
2018-07-30T06:12:25.768Z,24.70
2018-07-30T06:14:54.181Z,25.00
2018-07-30T06:17:22.563Z,25.70
2018-07-30T06:19:51.020Z,26.20
2018-07-30T06:22:19.464Z,26.40
2018-07-30T06:24:47.882Z,26.60
2018-07-30T06:27:16.330Z,26.80
2018-07-30T06:29:46.025Z,26.80
2018-07-30T06:32:14.676Z,26.70
2018-07-30T06:34:43.140Z,26.90
2018-07-30T06:37:11.588Z,27.00
2018-07-30T06:39:40.017Z,27.20
2018-07-30T06:42:08.472Z,27.40
2018-07-30T06:44:36.912Z,27.60
2018-07-30T06:47:05.768Z,28.00
2018-07-30T06:49:34.327Z,28.20
2018-07-30T06:52:02.787Z,28.50
2018-07-30T06:54:31.238Z,28.30
2018-07-30T06:56:59.687Z,28.00
2018-07-30T06:59:28.086Z,27.60
2018-07-30T07:01:56.628Z,27.00
2018-07-30T07:04:25.037Z,26.50
2018-07-30T07:06:53.449Z,26.00
2018-07-30T07:09:21.899Z,25.80
2018-07-30T07:11:50.287Z,25.60
2018-07-30T07:14:18.754Z,25.60
2018-07-30T07:16:47.333Z,25.60
2018-07-30T07:19:15.780Z,25.60
2018-07-30T07:21:44.249Z,25.70
2018-07-30T07:24:12.602Z,25.80
2018-07-30T07:26:41.017Z,25.80
2018-07-30T07:29:09.431Z,25.90
2018-07-30T07:31:37.878Z,26.20
2018-07-30T07:34:06.612Z,26.40
2018-07-30T07:36:34.991Z,26.50
2018-07-30T07:39:03.555Z,26.40
2018-07-30T07:41:32.002Z,26.30
2018-07-30T07:44:00.457Z,26.60
2018-07-30T07:46:28.891Z,26.80
2018-07-30T07:48:58.337Z,26.90
2018-07-30T07:51:26.726Z,27.00
2018-07-30T07:53:55.277Z,27.10
2018-07-30T07:56:23.670Z,27.30
2018-07-30T07:58:52.099Z,27.60
2018-07-30T08:01:20.549Z,27.70
2018-07-30T08:03:48.981Z,28.00
2018-07-30T08:06:21.766Z,28.10
2018-07-30T08:08:50.044Z,27.90
2018-07-30T08:11:18.488Z,27.90
2018-07-30T08:13:46.974Z,27.80
2018-07-30T08:16:15.464Z,27.80
2018-07-30T08:18:43.802Z,27.70
2018-07-30T08:21:12.236Z,27.60
2018-07-30T08:23:40.693Z,27.50
2018-07-30T08:26:09.119Z,27.40
2018-07-30T08:28:37.543Z,27.30
2018-07-30T08:31:06.189Z,27.30
2018-07-30T08:33:34.565Z,27.50
2018-07-30T08:36:02.957Z,27.80
2018-07-30T08:38:31.403Z,28.00
2018-07-30T08:40:59.823Z,28.20
2018-07-30T08:43:28.209Z,28.50
2018-07-30T08:45:56.591Z,28.80
2018-07-30T08:48:25.003Z,28.90
2018-07-30T08:50:53.379Z,29.10
2018-07-30T08:53:21.797Z,29.20
2018-07-30T08:55:50.199Z,29.20
2018-07-30T08:58:18.613Z,29.20
2018-07-30T09:00:47.051Z,29.20
2018-07-30T09:03:15.485Z,29.30
2018-07-30T09:05:43.853Z,29.30
2018-07-30T09:08:12.283Z,29.30
2018-07-30T09:10:40.688Z,29.50
2018-07-30T09:13:09.206Z,29.90
2018-07-30T09:15:37.744Z,30.10
2018-07-30T09:18:06.173Z,30.30
2018-07-30T09:20:34.556Z,30.60
2018-07-30T09:23:03.012Z,31.00
2018-07-30T09:25:31.399Z,31.20
2018-07-30T09:27:59.788Z,31.10
2018-07-30T09:30:28.184Z,31.20
2018-07-30T09:32:56.657Z,31.50
2018-07-30T09:35:24.988Z,32.10
2018-07-30T09:37:53.473Z,32.60
2018-07-30T09:40:21.852Z,32.90
2018-07-30T09:42:50.284Z,33.00
2018-07-30T09:45:18.682Z,33.00
2018-07-30T09:47:47.056Z,33.30
2018-07-30T09:50:15.476Z,33.50
2018-07-30T09:52:43.863Z,33.40
2018-07-30T09:55:12.360Z,33.20
2018-07-30T09:57:40.764Z,32.70
2018-07-30T10:00:09.708Z,32.30
2018-07-30T10:02:38.169Z,32.30
2018-07-30T10:05:06.628Z,32.60
2018-07-30T10:07:35.254Z,33.00
2018-07-30T10:10:03.899Z,33.40
2018-07-30T10:12:32.314Z,33.60
2018-07-30T10:15:00.911Z,34.00
2018-07-30T10:17:32.721Z,34.00
2018-07-30T10:20:01.183Z,33.60
2018-07-30T10:22:29.603Z,33.40
2018-07-30T10:24:58.008Z,33.70
2018-07-30T10:27:26.457Z,33.90
2018-07-30T10:29:54.897Z,33.90
2018-07-30T10:32:23.345Z,33.60
2018-07-30T10:34:51.782Z,33.80
2018-07-30T10:37:20.205Z,33.50
2018-07-30T10:39:48.649Z,33.40
2018-07-30T10:42:17.039Z,33.00
2018-07-30T10:44:45.455Z,32.70
2018-07-30T10:47:14.022Z,32.50
2018-07-30T10:49:42.536Z,32.50
2018-07-30T10:52:11.056Z,32.50
2018-07-30T10:54:39.523Z,32.70
2018-07-30T10:57:07.980Z,32.70
2018-07-30T10:59:36.383Z,32.60
2018-07-30T11:02:04.954Z,32.80
2018-07-30T11:04:33.440Z,33.00
2018-07-30T11:07:01.917Z,33.10
2018-07-30T11:09:30.329Z,33.00
2018-07-30T11:11:58.724Z,33.30
2018-07-30T11:14:27.134Z,33.30
2018-07-30T11:16:55.558Z,33.00
2018-07-30T11:19:23.985Z,32.80
2018-07-30T11:21:52.440Z,33.10
2018-07-30T11:24:20.832Z,33.10
2018-07-30T11:26:49.228Z,33.20
2018-07-30T11:29:17.690Z,33.10
2018-07-30T11:31:46.184Z,33.20
2018-07-30T11:34:14.612Z,32.80
2018-07-30T11:36:43.172Z,32.80
2018-07-30T11:39:13.121Z,32.80
2018-07-30T11:41:42.176Z,32.80
2018-07-30T11:44:10.712Z,32.80
2018-07-30T11:46:39.123Z,32.70
2018-07-30T11:49:07.543Z,32.60
2018-07-30T11:51:36.199Z,32.90
2018-07-30T11:54:04.799Z,33.20
2018-07-30T11:56:33.196Z,33.60
2018-07-30T11:59:01.681Z,33.90
2018-07-30T12:01:30.187Z,33.90
2018-07-30T12:03:58.797Z,33.60
2018-07-30T12:06:27.232Z,33.60
2018-07-30T12:08:55.729Z,33.60
2018-07-30T12:11:25.020Z,33.30
2018-07-30T12:13:53.541Z,33.20
2018-07-30T12:16:21.958Z,33.40
2018-07-30T12:18:50.372Z,33.60
2018-07-30T12:21:18.788Z,33.40
2018-07-30T12:23:47.191Z,33.10
2018-07-30T12:26:16.034Z,33.00
2018-07-30T12:28:44.577Z,33.10
2018-07-30T12:31:13.096Z,33.10
2018-07-30T12:33:41.552Z,33.00
2018-07-30T12:36:10.004Z,32.90
2018-07-30T12:38:38.469Z,33.00
2018-07-30T12:41:07.045Z,33.00
2018-07-30T12:43:35.477Z,32.90
2018-07-30T12:46:05.361Z,32.90
2018-07-30T12:48:34.041Z,32.80
2018-07-30T12:51:02.540Z,32.40
2018-07-30T12:53:30.943Z,32.10
2018-07-30T12:55:59.363Z,31.90
2018-07-30T12:58:27.784Z,31.90
2018-07-30T13:00:56.303Z,32.10
2018-07-30T13:03:24.723Z,32.30
2018-07-30T13:05:53.282Z,32.60
2018-07-30T13:08:22.589Z,32.80
2018-07-30T13:10:51.013Z,33.00
2018-07-30T13:13:19.488Z,33.20
2018-07-30T13:15:47.890Z,33.40
2018-07-30T13:18:16.282Z,33.50
2018-07-30T13:20:44.772Z,33.30
2018-07-30T13:23:13.261Z,33.20
2018-07-30T13:25:41.700Z,33.30
2018-07-30T13:28:10.058Z,33.40
2018-07-30T13:30:38.519Z,33.40
2018-07-30T13:33:07.599Z,33.10
2018-07-30T13:35:36.030Z,32.90
2018-07-30T13:38:04.806Z,32.50
2018-07-30T13:40:33.263Z,32.30
2018-07-30T13:43:01.665Z,32.20
2018-07-30T13:45:30.080Z,32.40
2018-07-30T13:47:58.621Z,32.70
2018-07-30T13:50:27.148Z,32.90
2018-07-30T13:52:55.551Z,33.10
2018-07-30T13:55:23.964Z,33.20
2018-07-30T13:57:52.500Z,33.40
2018-07-30T14:00:20.920Z,33.30
2018-07-30T14:02:49.643Z,33.10
2018-07-30T14:05:18.136Z,33.10
2018-07-30T14:07:58.955Z,33.20
2018-07-30T14:10:27.394Z,33.30
2018-07-30T14:12:55.837Z,33.20
2018-07-30T14:15:24.279Z,33.20
2018-07-30T14:17:52.737Z,33.20
2018-07-30T14:20:22.044Z,33.20
2018-07-30T14:22:50.529Z,33.10
2018-07-30T14:25:19.117Z,33.10
2018-07-30T14:27:57.303Z,33.10
2018-07-30T14:30:26.623Z,33.00
2018-07-30T14:32:55.037Z,33.00
2018-07-30T14:35:23.949Z,33.00
2018-07-30T14:37:52.403Z,32.90
2018-07-30T14:40:20.863Z,33.00
2018-07-30T14:42:49.285Z,32.90
2018-07-30T14:45:17.666Z,32.70
2018-07-30T14:47:46.055Z,32.60
2018-07-30T14:50:14.472Z,32.50
2018-07-30T14:52:42.941Z,32.40
2018-07-30T14:55:11.424Z,32.40
2018-07-30T14:57:39.875Z,32.40
2018-07-30T15:00:09.300Z,32.40
2018-07-30T15:02:37.926Z,32.40
2018-07-30T15:05:06.635Z,32.50
2018-07-30T15:07:35.040Z,32.50
2018-07-30T15:10:03.955Z,32.50
2018-07-30T15:12:32.395Z,32.50
2018-07-30T15:15:00.823Z,32.40
2018-07-30T15:17:29.223Z,32.30
2018-07-30T15:19:57.647Z,32.20
2018-07-30T15:22:26.063Z,32.10
2018-07-30T15:24:54.557Z,32.10
2018-07-30T15:27:22.943Z,32.10
2018-07-30T15:29:51.405Z,32.10
2018-07-30T15:32:19.800Z,32.20
2018-07-30T15:34:48.192Z,32.20
2018-07-30T15:37:16.672Z,32.20
2018-07-30T15:39:45.701Z,32.30
2018-07-30T15:42:14.101Z,32.30
2018-07-30T15:44:42.596Z,32.40
2018-07-30T15:47:11.117Z,32.60
2018-07-30T15:49:39.541Z,32.90
2018-07-30T15:52:07.974Z,32.90
2018-07-30T15:54:36.659Z,32.90
2018-07-30T15:57:05.254Z,32.90
2018-07-30T15:59:33.687Z,32.90
2018-07-30T16:02:02.110Z,32.80
2018-07-30T16:04:31.026Z,32.70
2018-07-30T16:06:59.468Z,32.70
2018-07-30T16:09:27.862Z,32.70
2018-07-30T16:11:56.244Z,32.70
2018-07-30T16:14:24.693Z,32.70
2018-07-30T16:16:53.103Z,32.70
2018-07-30T16:19:21.495Z,32.70
2018-07-30T16:21:50.014Z,32.70
2018-07-30T16:24:18.471Z,32.80
2018-07-30T16:26:46.887Z,32.90
2018-07-30T16:29:15.291Z,33.10
2018-07-30T16:31:43.681Z,33.20
2018-07-30T16:34:12.275Z,33.20
2018-07-30T16:36:40.721Z,33.30
2018-07-30T16:39:10.213Z,33.30
2018-07-30T16:41:38.632Z,33.30
2018-07-30T16:44:07.682Z,33.10
2018-07-30T16:46:36.104Z,33.00
2018-07-30T16:49:04.552Z,33.00
2018-07-30T16:51:32.968Z,32.90
2018-07-30T16:54:01.378Z,32.90
2018-07-30T16:56:30.332Z,32.70
2018-07-30T16:58:59.112Z,32.70
2018-07-30T17:01:27.529Z,32.60
2018-07-30T17:03:55.941Z,32.50
2018-07-30T17:06:24.397Z,32.50
2018-07-30T17:08:52.889Z,32.40
2018-07-30T17:11:21.271Z,32.40
2018-07-30T17:13:49.687Z,32.40
2018-07-30T17:16:18.273Z,32.30
2018-07-30T17:18:46.692Z,32.30
2018-07-30T17:21:15.225Z,32.20
2018-07-30T17:23:43.801Z,32.20
2018-07-30T17:26:12.256Z,32.20
2018-07-30T17:28:40.800Z,32.20
2018-07-30T17:31:09.268Z,32.20
2018-07-30T17:33:37.902Z,32.20
2018-07-30T17:36:06.428Z,32.20
2018-07-30T17:38:34.818Z,32.20
2018-07-30T17:41:03.298Z,32.10
2018-07-30T17:43:31.698Z,32.10
2018-07-30T17:46:00.383Z,32.10
2018-07-30T17:48:28.886Z,32.00
2018-07-30T17:50:57.828Z,31.90
2018-07-30T17:53:26.246Z,31.90
2018-07-30T17:55:54.670Z,31.90
2018-07-30T17:58:23.163Z,31.80
2018-07-30T18:00:51.796Z,31.80
2018-07-30T18:03:20.232Z,31.80
2018-07-30T18:05:48.659Z,31.70
2018-07-30T18:08:17.061Z,31.70
2018-07-30T18:10:45.508Z,31.60
2018-07-30T18:13:13.923Z,31.60
2018-07-30T18:15:42.397Z,31.50
2018-07-30T18:18:11.217Z,31.50
2018-07-30T18:20:40.500Z,31.40
2018-07-30T18:23:08.958Z,31.40
2018-07-30T18:25:37.349Z,31.30
2018-07-30T18:28:05.860Z,31.20
2018-07-30T18:30:34.312Z,31.20
2018-07-30T18:33:02.729Z,31.10
2018-07-30T18:35:31.157Z,31.10
2018-07-30T18:37:59.583Z,31.00
2018-07-30T18:40:28.023Z,31.00
2018-07-30T18:42:56.500Z,30.90
2018-07-30T18:45:24.899Z,30.90
2018-07-30T18:47:53.332Z,30.80
2018-07-30T18:50:21.764Z,30.80
2018-07-30T18:52:50.199Z,30.70
2018-07-30T18:55:18.601Z,30.70
2018-07-30T18:57:47.043Z,30.60
2018-07-30T19:00:15.459Z,30.50
2018-07-30T19:02:44.041Z,30.50
2018-07-30T19:05:12.544Z,30.40
2018-07-30T19:07:41.220Z,30.40
2018-07-30T19:10:09.638Z,30.30
2018-07-30T19:12:38.050Z,30.20
2018-07-30T19:15:07.803Z,30.20
2018-07-30T19:17:36.463Z,30.10
2018-07-30T19:20:05.015Z,30.00
2018-07-30T19:22:33.469Z,30.00
2018-07-30T19:25:02.360Z,29.90
2018-07-30T19:27:31.797Z,29.80
2018-07-30T19:30:00.192Z,29.80
2018-07-30T19:32:29.018Z,29.70
2018-07-30T19:34:57.524Z,29.70
2018-07-30T19:37:26.078Z,29.70
2018-07-30T19:39:55.348Z,29.70
2018-07-30T19:42:23.794Z,29.70
2018-07-30T19:44:52.200Z,29.60
2018-07-30T19:47:20.640Z,29.60
2018-07-30T19:49:49.107Z,29.60
2018-07-30T19:52:17.520Z,29.50
2018-07-30T19:54:46.052Z,29.40
2018-07-30T19:57:14.507Z,29.40
2018-07-30T19:59:43.021Z,29.40
2018-07-30T20:02:11.557Z,29.30
2018-07-30T20:04:39.974Z,29.30
2018-07-30T20:07:08.343Z,29.30
2018-07-30T20:09:36.759Z,29.20
2018-07-30T20:12:05.187Z,29.20
2018-07-30T20:14:33.708Z,29.20
2018-07-30T20:17:02.180Z,29.20
2018-07-30T20:19:30.508Z,29.20
2018-07-30T20:21:58.981Z,29.20
2018-07-30T20:24:27.431Z,29.20
2018-07-30T20:26:55.827Z,29.10
2018-07-30T20:29:24.220Z,29.10
2018-07-30T20:31:52.611Z,29.00
2018-07-30T20:34:21.061Z,29.00
2018-07-30T20:36:49.452Z,28.90
2018-07-30T20:39:17.899Z,28.80
2018-07-30T20:41:46.305Z,28.80
2018-07-30T20:44:14.708Z,28.70
2018-07-30T20:46:43.112Z,28.70
2018-07-30T20:49:11.551Z,28.50
2018-07-30T20:51:40.220Z,28.40
2018-07-30T20:54:08.750Z,28.30
2018-07-30T20:56:37.232Z,28.30
2018-07-30T20:59:05.706Z,28.20
2018-07-30T21:01:34.162Z,28.20
2018-07-30T21:04:02.552Z,28.10
2018-07-30T21:08:59.068Z,28.00
2018-07-30T21:11:27.539Z,28.00
2018-07-30T21:13:55.985Z,27.90
2018-07-30T21:18:52.502Z,27.80
2018-07-30T21:21:21.082Z,27.80
2018-07-30T21:23:49.444Z,27.90
2018-07-30T21:26:17.886Z,27.90
2018-07-30T21:28:46.286Z,27.80
2018-07-30T21:31:14.716Z,27.80
2018-07-30T21:33:43.135Z,27.70
2018-07-30T21:36:11.559Z,27.70
2018-07-30T21:38:39.977Z,27.60
2018-07-30T21:41:08.391Z,27.50
2018-07-30T21:43:36.764Z,27.50
2018-07-30T21:46:05.368Z,27.40
2018-07-30T21:48:33.765Z,27.30
2018-07-30T21:51:02.202Z,27.30
2018-07-30T21:53:30.536Z,27.30
2018-07-30T21:55:59.126Z,27.30
2018-07-30T21:58:27.503Z,27.30
2018-07-30T22:00:56.624Z,27.30
2018-07-30T22:03:25.342Z,27.30
2018-07-30T22:05:55.771Z,27.40
2018-07-30T22:08:24.666Z,27.40
2018-07-30T22:10:53.120Z,27.40
2018-07-30T22:13:21.524Z,27.30
2018-07-30T22:15:49.956Z,27.20
2018-07-30T22:18:18.896Z,27.10
2018-07-30T22:20:48.364Z,27.10
2018-07-30T22:23:16.808Z,27.10
2018-07-30T22:25:45.346Z,27.00
2018-07-30T22:28:13.723Z,26.90
2018-07-30T22:30:42.178Z,26.80
2018-07-30T22:33:10.593Z,26.60
2018-07-30T22:35:39.005Z,26.80
2018-07-30T22:38:07.382Z,26.80
2018-07-30T22:40:35.776Z,26.90
2018-07-30T22:43:04.280Z,26.80
2018-07-30T22:45:32.667Z,26.90
2018-07-30T22:48:01.109Z,27.00
2018-07-30T22:50:29.496Z,27.10
2018-07-30T22:52:58.148Z,27.10
2018-07-30T22:55:26.532Z,27.20
2018-07-30T22:57:55.412Z,27.20
2018-07-30T23:00:23.816Z,27.20
2018-07-30T23:02:52.266Z,27.20
2018-07-30T23:05:20.667Z,27.20
2018-07-30T23:07:49.104Z,27.20
2018-07-30T23:10:17.482Z,27.10
2018-07-30T23:12:45.880Z,26.80
2018-07-30T23:15:14.364Z,26.60
2018-07-30T23:17:42.840Z,26.50
2018-07-30T23:20:11.218Z,26.30
2018-07-30T23:22:39.748Z,26.20
2018-07-30T23:25:08.449Z,26.20
2018-07-30T23:27:36.890Z,26.00
2018-07-30T23:30:06.071Z,26.00
2018-07-30T23:32:34.447Z,25.80
2018-07-30T23:35:02.885Z,25.80
2018-07-30T23:37:31.275Z,25.80
2018-07-30T23:39:59.691Z,25.60
2018-07-30T23:42:28.116Z,25.50
2018-07-30T23:44:56.581Z,25.50
2018-07-30T23:47:25.081Z,25.50
2018-07-30T23:49:53.476Z,25.40
2018-07-30T23:52:21.871Z,25.40
2018-07-30T23:54:50.372Z,25.40
2018-07-30T23:57:18.756Z,25.30
2018-07-30T23:59:47.155Z,25.40
